sensor_id;sensor_type;location;lat;lon;timestamp;P1;durP1;ratioP1;P2;durP2;ratioP2
72273;SDS011;60208;48.692;8.948;2023-05-02T00:01:32;9.18;;;8.07;;
72273;SDS011;60208;48.692;8.948;2023-05-02T00:03:57;8.00;;;7.20;;
72273;SDS011;60208;48.692;8.948;2023-05-02T00:06:23;11.07;;;8.20;;
72273;SDS011;60208;48.692;8.948;2023-05-02T00:08:48;9.48;;;8.35;;
72273;SDS011;60208;48.692;8.948;2023-05-02T00:11:14;11.82;;;8.80;;
72273;SDS011;60208;48.692;8.948;2023-05-02T00:13:39;12.55;;;9.25;;
72273;SDS011;60208;48.692;8.948;2023-05-02T00:16:05;10.30;;;8.68;;
72273;SDS011;60208;48.692;8.948;2023-05-02T00:18:31;9.70;;;8.70;;
72273;SDS011;60208;48.692;8.948;2023-05-02T00:20:56;11.77;;;9.35;;
72273;SDS011;60208;48.692;8.948;2023-05-02T00:23:22;13.13;;;9.15;;
72273;SDS011;60208;48.692;8.948;2023-05-02T00:25:48;9.45;;;8.27;;
72273;SDS011;60208;48.692;8.948;2023-05-02T00:28:13;10.82;;;9.00;;
72273;SDS011;60208;48.692;8.948;2023-05-02T00:30:57;9.48;;;7.10;;
72273;SDS011;60208;48.692;8.948;2023-05-02T00:33:23;8.75;;;7.65;;
72273;SDS011;60208;48.692;8.948;2023-05-02T00:35:54;10.65;;;7.45;;
72273;SDS011;60208;48.692;8.948;2023-05-02T00:38:23;12.00;;;7.80;;
72273;SDS011;60208;48.692;8.948;2023-05-02T00:40:53;10.02;;;8.05;;
72273;SDS011;60208;48.692;8.948;2023-05-02T00:43:18;10.05;;;7.43;;
72273;SDS011;60208;48.692;8.948;2023-05-02T00:45:44;10.50;;;7.85;;
72273;SDS011;60208;48.692;8.948;2023-05-02T00:48:10;9.57;;;7.50;;
72273;SDS011;60208;48.692;8.948;2023-05-02T00:50:37;7.97;;;7.18;;
72273;SDS011;60208;48.692;8.948;2023-05-02T00:53:04;7.47;;;6.78;;
72273;SDS011;60208;48.692;8.948;2023-05-02T00:55:33;8.77;;;7.88;;
72273;SDS011;60208;48.692;8.948;2023-05-02T00:58:03;9.73;;;8.27;;
72273;SDS011;60208;48.692;8.948;2023-05-02T01:00:54;8.68;;;7.78;;
72273;SDS011;60208;48.692;8.948;2023-05-02T01:06:30;10.23;;;8.07;;
72273;SDS011;60208;48.692;8.948;2023-05-02T01:11:36;9.57;;;7.43;;
72273;SDS011;60208;48.692;8.948;2023-05-02T01:14:08;8.68;;;7.57;;
72273;SDS011;60208;48.692;8.948;2023-05-02T01:16:36;8.07;;;7.25;;
72273;SDS011;60208;48.692;8.948;2023-05-02T01:19:04;9.65;;;8.00;;
72273;SDS011;60208;48.692;8.948;2023-05-02T01:21:33;8.45;;;7.65;;
72273;SDS011;60208;48.692;8.948;2023-05-02T01:26:48;8.73;;;7.82;;
72273;SDS011;60208;48.692;8.948;2023-05-02T01:29:19;8.85;;;7.68;;
72273;SDS011;60208;48.692;8.948;2023-05-02T01:31:48;13.70;;;8.60;;
72273;SDS011;60208;48.692;8.948;2023-05-02T01:34:14;9.73;;;7.47;;
72273;SDS011;60208;48.692;8.948;2023-05-02T01:36:41;9.57;;;8.43;;
72273;SDS011;60208;48.692;8.948;2023-05-02T01:39:13;11.55;;;8.35;;
72273;SDS011;60208;48.692;8.948;2023-05-02T01:41:43;11.45;;;8.82;;
72273;SDS011;60208;48.692;8.948;2023-05-02T01:44:11;10.98;;;8.13;;
72273;SDS011;60208;48.692;8.948;2023-05-02T01:46:37;13.50;;;9.25;;
72273;SDS011;60208;48.692;8.948;2023-05-02T01:49:04;12.75;;;9.90;;
72273;SDS011;60208;48.692;8.948;2023-05-02T01:51:34;11.25;;;8.82;;
72273;SDS011;60208;48.692;8.948;2023-05-02T01:54:05;9.38;;;8.18;;
72273;SDS011;60208;48.692;8.948;2023-05-02T01:56:33;9.20;;;7.82;;
72273;SDS011;60208;48.692;8.948;2023-05-02T01:59:01;12.18;;;8.32;;
72273;SDS011;60208;48.692;8.948;2023-05-02T02:01:29;11.57;;;8.18;;
72273;SDS011;60208;48.692;8.948;2023-05-02T02:04:01;10.13;;;9.05;;
72273;SDS011;60208;48.692;8.948;2023-05-02T02:06:28;14.80;;;9.45;;
72273;SDS011;60208;48.692;8.948;2023-05-02T02:08:54;10.57;;;9.48;;
72273;SDS011;60208;48.692;8.948;2023-05-02T02:14:20;13.15;;;9.80;;
72273;SDS011;60208;48.692;8.948;2023-05-02T02:16:46;12.70;;;10.13;;
72273;SDS011;60208;48.692;8.948;2023-05-02T02:19:14;12.65;;;9.50;;
72273;SDS011;60208;48.692;8.948;2023-05-02T02:21:41;11.93;;;9.63;;
72273;SDS011;60208;48.692;8.948;2023-05-02T02:24:07;11.25;;;9.18;;
72273;SDS011;60208;48.692;8.948;2023-05-02T02:26:34;11.20;;;10.05;;
72273;SDS011;60208;48.692;8.948;2023-05-02T02:28:59;10.60;;;9.48;;
72273;SDS011;60208;48.692;8.948;2023-05-02T02:33:58;10.88;;;9.32;;
72273;SDS011;60208;48.692;8.948;2023-05-02T02:36:27;10.88;;;9.77;;
72273;SDS011;60208;48.692;8.948;2023-05-02T02:39:17;12.55;;;10.20;;
72273;SDS011;60208;48.692;8.948;2023-05-02T02:41:49;10.90;;;9.77;;
72273;SDS011;60208;48.692;8.948;2023-05-02T02:44:29;11.07;;;9.95;;
72273;SDS011;60208;48.692;8.948;2023-05-02T02:47:05;13.32;;;9.45;;
72273;SDS011;60208;48.692;8.948;2023-05-02T02:49:43;8.93;;;8.02;;
72273;SDS011;60208;48.692;8.948;2023-05-02T02:54:59;10.43;;;9.32;;
72273;SDS011;60208;48.692;8.948;2023-05-02T02:57:38;11.57;;;9.52;;
72273;SDS011;60208;48.692;8.948;2023-05-02T03:00:15;13.15;;;9.23;;
72273;SDS011;60208;48.692;8.948;2023-05-02T03:02:42;11.88;;;8.43;;
72273;SDS011;60208;48.692;8.948;2023-05-02T03:05:09;9.95;;;8.43;;
72273;SDS011;60208;48.692;8.948;2023-05-02T03:07:35;12.10;;;8.50;;
72273;SDS011;60208;48.692;8.948;2023-05-02T03:10:04;10.07;;;8.88;;
72273;SDS011;60208;48.692;8.948;2023-05-02T03:12:30;11.20;;;9.35;;
72273;SDS011;60208;48.692;8.948;2023-05-02T03:17:49;8.90;;;8.00;;
72273;SDS011;60208;48.692;8.948;2023-05-02T03:20:14;9.93;;;8.23;;
72273;SDS011;60208;48.692;8.948;2023-05-02T03:22:39;9.10;;;7.90;;
72273;SDS011;60208;48.692;8.948;2023-05-02T03:25:08;10.35;;;8.30;;
72273;SDS011;60208;48.692;8.948;2023-05-02T03:27:39;11.10;;;8.57;;
72273;SDS011;60208;48.692;8.948;2023-05-02T03:30:05;10.65;;;9.27;;
72273;SDS011;60208;48.692;8.948;2023-05-02T03:32:31;13.10;;;9.85;;
72273;SDS011;60208;48.692;8.948;2023-05-02T03:34:57;11.15;;;9.43;;
72273;SDS011;60208;48.692;8.948;2023-05-02T03:37:23;12.15;;;9.38;;
72273;SDS011;60208;48.692;8.948;2023-05-02T03:40:09;10.25;;;9.15;;
72273;SDS011;60208;48.692;8.948;2023-05-02T03:42:35;10.82;;;9.18;;
72273;SDS011;60208;48.692;8.948;2023-05-02T03:45:04;10.40;;;9.13;;
72273;SDS011;60208;48.692;8.948;2023-05-02T03:47:30;10.77;;;9.68;;
72273;SDS011;60208;48.692;8.948;2023-05-02T03:49:56;11.45;;;8.82;;
72273;SDS011;60208;48.692;8.948;2023-05-02T03:52:23;11.57;;;8.40;;
72273;SDS011;60208;48.692;8.948;2023-05-02T03:54:48;10.73;;;8.48;;
72273;SDS011;60208;48.692;8.948;2023-05-02T03:57:14;9.60;;;8.10;;
72273;SDS011;60208;48.692;8.948;2023-05-02T03:59:42;8.95;;;7.60;;
72273;SDS011;60208;48.692;8.948;2023-05-02T04:02:10;10.07;;;7.82;;
72273;SDS011;60208;48.692;8.948;2023-05-02T04:04:35;9.63;;;8.35;;
72273;SDS011;60208;48.692;8.948;2023-05-02T04:07:01;12.85;;;9.48;;
72273;SDS011;60208;48.692;8.948;2023-05-02T04:09:27;11.68;;;9.55;;
72273;SDS011;60208;48.692;8.948;2023-05-02T04:11:52;12.60;;;9.75;;
72273;SDS011;60208;48.692;8.948;2023-05-02T04:14:18;12.32;;;9.63;;
72273;SDS011;60208;48.692;8.948;2023-05-02T04:16:52;11.52;;;9.52;;
72273;SDS011;60208;48.692;8.948;2023-05-02T04:19:18;10.55;;;9.43;;
72273;SDS011;60208;48.692;8.948;2023-05-02T04:21:43;10.10;;;9.00;;
72273;SDS011;60208;48.692;8.948;2023-05-02T04:24:09;10.40;;;9.15;;
72273;SDS011;60208;48.692;8.948;2023-05-02T04:26:35;11.35;;;9.65;;
72273;SDS011;60208;48.692;8.948;2023-05-02T04:29:03;10.70;;;9.55;;
72273;SDS011;60208;48.692;8.948;2023-05-02T04:31:32;10.75;;;9.65;;
72273;SDS011;60208;48.692;8.948;2023-05-02T04:33:57;12.13;;;9.38;;
72273;SDS011;60208;48.692;8.948;2023-05-02T04:36:23;10.23;;;9.18;;
72273;SDS011;60208;48.692;8.948;2023-05-02T04:38:50;10.35;;;9.35;;
72273;SDS011;60208;48.692;8.948;2023-05-02T04:41:15;10.30;;;9.30;;
72273;SDS011;60208;48.692;8.948;2023-05-02T04:43:41;10.48;;;9.38;;
72273;SDS011;60208;48.692;8.948;2023-05-02T04:46:06;12.05;;;10.30;;
72273;SDS011;60208;48.692;8.948;2023-05-02T04:48:32;10.88;;;9.70;;
72273;SDS011;60208;48.692;8.948;2023-05-02T04:50:57;10.68;;;9.60;;
72273;SDS011;60208;48.692;8.948;2023-05-02T04:53:23;11.07;;;9.57;;
72273;SDS011;60208;48.692;8.948;2023-05-02T04:55:49;11.23;;;9.68;;
72273;SDS011;60208;48.692;8.948;2023-05-02T04:58:14;11.07;;;9.98;;
72273;SDS011;60208;48.692;8.948;2023-05-02T05:00:47;11.65;;;9.88;;
72273;SDS011;60208;48.692;8.948;2023-05-02T05:03:13;12.18;;;10.38;;
72273;SDS011;60208;48.692;8.948;2023-05-02T05:05:39;11.95;;;10.02;;
72273;SDS011;60208;48.692;8.948;2023-05-02T05:08:04;15.45;;;11.77;;
72273;SDS011;60208;48.692;8.948;2023-05-02T05:10:33;11.43;;;9.68;;
72273;SDS011;60208;48.692;8.948;2023-05-02T05:12:58;10.40;;;9.40;;
72273;SDS011;60208;48.692;8.948;2023-05-02T05:15:24;12.50;;;10.23;;
72273;SDS011;60208;48.692;8.948;2023-05-02T05:17:51;12.98;;;10.52;;
72273;SDS011;60208;48.692;8.948;2023-05-02T05:20:16;10.60;;;9.55;;
72273;SDS011;60208;48.692;8.948;2023-05-02T05:22:42;11.63;;;10.02;;
72273;SDS011;60208;48.692;8.948;2023-05-02T05:25:08;12.00;;;10.32;;
72273;SDS011;60208;48.692;8.948;2023-05-02T05:27:34;11.30;;;10.10;;
72273;SDS011;60208;48.692;8.948;2023-05-02T05:30:00;10.60;;;9.50;;
72273;SDS011;60208;48.692;8.948;2023-05-02T05:32:25;12.95;;;11.00;;
72273;SDS011;60208;48.692;8.948;2023-05-02T05:34:52;16.60;;;10.85;;
72273;SDS011;60208;48.692;8.948;2023-05-02T05:37:18;12.68;;;11.07;;
72273;SDS011;60208;48.692;8.948;2023-05-02T05:39:43;12.18;;;10.98;;
72273;SDS011;60208;48.692;8.948;2023-05-02T05:42:09;11.48;;;10.27;;
72273;SDS011;60208;48.692;8.948;2023-05-02T05:44:35;13.15;;;10.00;;
72273;SDS011;60208;48.692;8.948;2023-05-02T05:47:01;13.75;;;9.82;;
72273;SDS011;60208;48.692;8.948;2023-05-02T05:49:26;11.23;;;9.95;;
72273;SDS011;60208;48.692;8.948;2023-05-02T05:51:52;11.00;;;9.98;;
72273;SDS011;60208;48.692;8.948;2023-05-02T05:54:17;10.57;;;9.55;;
72273;SDS011;60208;48.692;8.948;2023-05-02T05:56:43;11.63;;;9.40;;
72273;SDS011;60208;48.692;8.948;2023-05-02T05:59:09;11.73;;;10.55;;
72273;SDS011;60208;48.692;8.948;2023-05-02T06:01:34;11.27;;;10.07;;
72273;SDS011;60208;48.692;8.948;2023-05-02T06:04:03;11.75;;;10.52;;
72273;SDS011;60208;48.692;8.948;2023-05-02T06:06:31;15.82;;;10.82;;
72273;SDS011;60208;48.692;8.948;2023-05-02T06:08:57;11.95;;;10.75;;
72273;SDS011;60208;48.692;8.948;2023-05-02T06:11:22;14.13;;;10.48;;
72273;SDS011;60208;48.692;8.948;2023-05-02T06:13:51;12.57;;;10.32;;
72273;SDS011;60208;48.692;8.948;2023-05-02T06:16:16;12.35;;;10.93;;
72273;SDS011;60208;48.692;8.948;2023-05-02T06:18:45;11.45;;;10.25;;
72273;SDS011;60208;48.692;8.948;2023-05-02T06:21:11;13.35;;;11.45;;
72273;SDS011;60208;48.692;8.948;2023-05-02T06:23:37;12.27;;;10.90;;
72273;SDS011;60208;48.692;8.948;2023-05-02T06:26:03;13.35;;;10.55;;
72273;SDS011;60208;48.692;8.948;2023-05-02T06:28:28;12.35;;;10.98;;
72273;SDS011;60208;48.692;8.948;2023-05-02T06:30:58;12.30;;;11.00;;
72273;SDS011;60208;48.692;8.948;2023-05-02T06:33:27;14.15;;;12.25;;
72273;SDS011;60208;48.692;8.948;2023-05-02T06:35:55;13.85;;;12.38;;
72273;SDS011;60208;48.692;8.948;2023-05-02T06:38:21;16.60;;;13.27;;
72273;SDS011;60208;48.692;8.948;2023-05-02T06:40:47;16.15;;;12.35;;
72273;SDS011;60208;48.692;8.948;2023-05-02T06:43:13;17.85;;;15.55;;
72273;SDS011;60208;48.692;8.948;2023-05-02T06:45:39;15.32;;;13.75;;
72273;SDS011;60208;48.692;8.948;2023-05-02T06:48:05;16.13;;;14.30;;
72273;SDS011;60208;48.692;8.948;2023-05-02T06:50:31;19.77;;;15.13;;
72273;SDS011;60208;48.692;8.948;2023-05-02T06:52:56;14.98;;;13.50;;
72273;SDS011;60208;48.692;8.948;2023-05-02T06:55:22;16.58;;;14.50;;
72273;SDS011;60208;48.692;8.948;2023-05-02T06:57:48;17.65;;;15.50;;
72273;SDS011;60208;48.692;8.948;2023-05-02T07:00:15;17.45;;;15.65;;
72273;SDS011;60208;48.692;8.948;2023-05-02T07:02:41;19.33;;;15.55;;
72273;SDS011;60208;48.692;8.948;2023-05-02T07:05:06;19.20;;;17.30;;
72273;SDS011;60208;48.692;8.948;2023-05-02T07:07:32;20.63;;;17.52;;
72273;SDS011;60208;48.692;8.948;2023-05-02T07:09:58;20.20;;;18.08;;
72273;SDS011;60208;48.692;8.948;2023-05-02T07:12:24;23.38;;;19.63;;
72273;SDS011;60208;48.692;8.948;2023-05-02T07:14:52;20.05;;;17.98;;
72273;SDS011;60208;48.692;8.948;2023-05-02T07:17:18;20.83;;;18.70;;
72273;SDS011;60208;48.692;8.948;2023-05-02T07:19:46;22.45;;;18.60;;
72273;SDS011;60208;48.692;8.948;2023-05-02T07:22:15;21.92;;;19.63;;
72273;SDS011;60208;48.692;8.948;2023-05-02T07:24:43;23.70;;;19.58;;
72273;SDS011;60208;48.692;8.948;2023-05-02T07:27:12;20.35;;;18.13;;
72273;SDS011;60208;48.692;8.948;2023-05-02T07:29:40;23.05;;;19.15;;
72273;SDS011;60208;48.692;8.948;2023-05-02T07:32:06;23.67;;;20.10;;
72273;SDS011;60208;48.692;8.948;2023-05-02T07:34:32;22.30;;;20.00;;
72273;SDS011;60208;48.692;8.948;2023-05-02T07:37:00;22.77;;;20.20;;
72273;SDS011;60208;48.692;8.948;2023-05-02T07:39:26;24.27;;;20.55;;
72273;SDS011;60208;48.692;8.948;2023-05-02T07:41:52;26.33;;;23.52;;
72273;SDS011;60208;48.692;8.948;2023-05-02T07:44:18;24.10;;;21.52;;
72273;SDS011;60208;48.692;8.948;2023-05-02T07:46:43;25.10;;;22.45;;
72273;SDS011;60208;48.692;8.948;2023-05-02T07:49:09;26.55;;;21.58;;
72273;SDS011;60208;48.692;8.948;2023-05-02T07:51:34;26.75;;;23.15;;
72273;SDS011;60208;48.692;8.948;2023-05-02T07:54:00;29.30;;;26.25;;
72273;SDS011;60208;48.692;8.948;2023-05-02T07:56:26;28.08;;;25.15;;
72273;SDS011;60208;48.692;8.948;2023-05-02T07:58:51;27.92;;;25.02;;
72273;SDS011;60208;48.692;8.948;2023-05-02T08:01:17;29.13;;;26.08;;
72273;SDS011;60208;48.692;8.948;2023-05-02T08:03:43;32.20;;;27.60;;
72273;SDS011;60208;48.692;8.948;2023-05-02T08:06:09;33.88;;;28.83;;
72273;SDS011;60208;48.692;8.948;2023-05-02T08:08:34;27.58;;;24.10;;
72273;SDS011;60208;48.692;8.948;2023-05-02T08:11:00;34.10;;;30.38;;
72273;SDS011;60208;48.692;8.948;2023-05-02T08:13:26;31.77;;;28.38;;
72273;SDS011;60208;48.692;8.948;2023-05-02T08:15:52;35.00;;;30.27;;
72273;SDS011;60208;48.692;8.948;2023-05-02T08:18:22;35.65;;;30.55;;
72273;SDS011;60208;48.692;8.948;2023-05-02T08:20:51;35.70;;;31.25;;
72273;SDS011;60208;48.692;8.948;2023-05-02T08:23:20;41.53;;;33.50;;
72273;SDS011;60208;48.692;8.948;2023-05-02T08:25:45;38.58;;;33.55;;
72273;SDS011;60208;48.692;8.948;2023-05-02T08:28:10;36.80;;;32.60;;
72273;SDS011;60208;48.692;8.948;2023-05-02T08:30:39;39.20;;;32.50;;
72273;SDS011;60208;48.692;8.948;2023-05-02T08:33:05;37.05;;;30.88;;
72273;SDS011;60208;48.692;8.948;2023-05-02T08:35:33;35.90;;;29.95;;
72273;SDS011;60208;48.692;8.948;2023-05-02T08:37:58;34.90;;;30.33;;
72273;SDS011;60208;48.692;8.948;2023-05-02T08:40:27;38.92;;;33.25;;
72273;SDS011;60208;48.692;8.948;2023-05-02T08:42:55;36.10;;;30.67;;
72273;SDS011;60208;48.692;8.948;2023-05-02T08:45:21;34.35;;;30.65;;
72273;SDS011;60208;48.692;8.948;2023-05-02T08:47:47;35.00;;;31.27;;
72273;SDS011;60208;48.692;8.948;2023-05-02T08:50:14;32.92;;;29.42;;
72273;SDS011;60208;48.692;8.948;2023-05-02T08:52:40;37.67;;;30.63;;
72273;SDS011;60208;48.692;8.948;2023-05-02T08:55:06;33.08;;;29.58;;
72273;SDS011;60208;48.692;8.948;2023-05-02T08:57:32;32.05;;;28.65;;
72273;SDS011;60208;48.692;8.948;2023-05-02T08:59:58;26.00;;;23.38;;
72273;SDS011;60208;48.692;8.948;2023-05-02T09:05:38;31.60;;;27.40;;
72273;SDS011;60208;48.692;8.948;2023-05-02T09:08:05;27.05;;;23.83;;
72273;SDS011;60208;48.692;8.948;2023-05-02T09:10:30;31.23;;;27.83;;
72273;SDS011;60208;48.692;8.948;2023-05-02T09:13:26;27.15;;;24.48;;
72273;SDS011;60208;48.692;8.948;2023-05-02T09:16:01;27.58;;;24.63;;
72273;SDS011;60208;48.692;8.948;2023-05-02T09:18:34;27.63;;;24.90;;
72273;SDS011;60208;48.692;8.948;2023-05-02T09:21:00;35.00;;;28.98;;
72273;SDS011;60208;48.692;8.948;2023-05-02T09:31:29;30.38;;;26.83;;
72273;SDS011;60208;48.692;8.948;2023-05-02T09:34:07;26.20;;;23.50;;
72273;SDS011;60208;48.692;8.948;2023-05-02T09:36:43;28.50;;;25.55;;
72273;SDS011;60208;48.692;8.948;2023-05-02T09:39:15;24.38;;;21.90;;
72273;SDS011;60208;48.692;8.948;2023-05-02T09:41:42;27.63;;;23.48;;
72273;SDS011;60208;48.692;8.948;2023-05-02T09:44:13;25.98;;;23.48;;
72273;SDS011;60208;48.692;8.948;2023-05-02T09:46:40;20.77;;;18.73;;
72273;SDS011;60208;48.692;8.948;2023-05-02T09:49:06;24.40;;;21.92;;
72273;SDS011;60208;48.692;8.948;2023-05-02T09:51:33;23.73;;;18.17;;
72273;SDS011;60208;48.692;8.948;2023-05-02T09:53:59;24.30;;;19.40;;
72273;SDS011;60208;48.692;8.948;2023-05-02T09:56:24;20.42;;;18.33;;
72273;SDS011;60208;48.692;8.948;2023-05-02T09:58:50;21.55;;;19.35;;
72273;SDS011;60208;48.692;8.948;2023-05-02T10:01:16;22.95;;;20.40;;
72273;SDS011;60208;48.692;8.948;2023-05-02T10:03:45;20.52;;;18.63;;
72273;SDS011;60208;48.692;8.948;2023-05-02T10:06:11;16.30;;;14.70;;
72273;SDS011;60208;48.692;8.948;2023-05-02T10:08:38;15.23;;;13.10;;
72273;SDS011;60208;48.692;8.948;2023-05-02T10:11:05;16.38;;;14.75;;
72273;SDS011;60208;48.692;8.948;2023-05-02T10:13:32;17.75;;;15.88;;
72273;SDS011;60208;48.692;8.948;2023-05-02T10:16:05;16.67;;;15.02;;
72273;SDS011;60208;48.692;8.948;2023-05-02T10:18:39;16.55;;;15.00;;
72273;SDS011;60208;48.692;8.948;2023-05-02T10:21:10;18.70;;;15.48;;
72273;SDS011;60208;48.692;8.948;2023-05-02T10:23:37;16.73;;;15.15;;
72273;SDS011;60208;48.692;8.948;2023-05-02T10:26:13;17.92;;;15.30;;
72273;SDS011;60208;48.692;8.948;2023-05-02T10:28:42;22.55;;;16.88;;
72273;SDS011;60208;48.692;8.948;2023-05-02T10:31:09;17.58;;;15.18;;
72273;SDS011;60208;48.692;8.948;2023-05-02T10:33:36;17.60;;;15.73;;
72273;SDS011;60208;48.692;8.948;2023-05-02T10:36:02;16.40;;;14.82;;
72273;SDS011;60208;48.692;8.948;2023-05-02T10:38:28;16.63;;;14.98;;
72273;SDS011;60208;48.692;8.948;2023-05-02T10:40:58;14.98;;;13.60;;
72273;SDS011;60208;48.692;8.948;2023-05-02T10:43:27;14.35;;;12.95;;
72273;SDS011;60208;48.692;8.948;2023-05-02T10:45:54;12.95;;;10.60;;
72273;SDS011;60208;48.692;8.948;2023-05-02T10:48:21;13.02;;;10.57;;
72273;SDS011;60208;48.692;8.948;2023-05-02T10:53:34;12.75;;;11.65;;
72273;SDS011;60208;48.692;8.948;2023-05-02T10:58:43;10.60;;;9.52;;
72273;SDS011;60208;48.692;8.948;2023-05-02T11:04:04;14.45;;;13.05;;
72273;SDS011;60208;48.692;8.948;2023-05-02T11:06:34;13.02;;;11.73;;
72273;SDS011;60208;48.692;8.948;2023-05-02T11:11:49;12.30;;;10.95;;
72273;SDS011;60208;48.692;8.948;2023-05-02T11:17:14;12.52;;;11.23;;
72273;SDS011;60208;48.692;8.948;2023-05-02T11:22:34;13.20;;;11.93;;
72273;SDS011;60208;48.692;8.948;2023-05-02T11:25:02;15.48;;;13.80;;
72273;SDS011;60208;48.692;8.948;2023-05-02T11:30:08;14.75;;;13.23;;
72273;SDS011;60208;48.692;8.948;2023-05-02T11:35:27;14.85;;;13.43;;
72273;SDS011;60208;48.692;8.948;2023-05-02T11:37:59;13.48;;;12.18;;
72273;SDS011;60208;48.692;8.948;2023-05-02T11:40:38;12.88;;;11.60;;
72273;SDS011;60208;48.692;8.948;2023-05-02T11:43:13;13.73;;;12.43;;
72273;SDS011;60208;48.692;8.948;2023-05-02T11:45:42;14.05;;;12.75;;
72273;SDS011;60208;48.692;8.948;2023-05-02T11:48:12;13.65;;;12.32;;
72273;SDS011;60208;48.692;8.948;2023-05-02T11:50:54;14.15;;;12.68;;
72273;SDS011;60208;48.692;8.948;2023-05-02T11:53:26;11.75;;;10.65;;
72273;SDS011;60208;48.692;8.948;2023-05-02T11:56:01;11.25;;;10.18;;
72273;SDS011;60208;48.692;8.948;2023-05-02T11:58:28;13.45;;;12.15;;
72273;SDS011;60208;48.692;8.948;2023-05-02T12:01:11;13.95;;;10.10;;
72273;SDS011;60208;48.692;8.948;2023-05-02T12:03:41;12.07;;;10.82;;
72273;SDS011;60208;48.692;8.948;2023-05-02T12:06:16;14.43;;;10.10;;
72273;SDS011;60208;48.692;8.948;2023-05-02T12:08:48;13.32;;;12.02;;
72273;SDS011;60208;48.692;8.948;2023-05-02T12:11:14;14.73;;;11.35;;
72273;SDS011;60208;48.692;8.948;2023-05-02T12:13:43;15.88;;;14.15;;
72273;SDS011;60208;48.692;8.948;2023-05-02T12:16:13;13.75;;;12.23;;
72273;SDS011;60208;48.692;8.948;2023-05-02T12:18:39;17.08;;;12.88;;
72273;SDS011;60208;48.692;8.948;2023-05-02T12:21:05;14.20;;;12.20;;
72273;SDS011;60208;48.692;8.948;2023-05-02T12:23:38;13.32;;;11.98;;
72273;SDS011;60208;48.692;8.948;2023-05-02T12:28:52;17.60;;;14.85;;
72273;SDS011;60208;48.692;8.948;2023-05-02T12:31:29;18.35;;;16.70;;
72273;SDS011;60208;48.692;8.948;2023-05-02T12:33:56;19.13;;;17.23;;
72273;SDS011;60208;48.692;8.948;2023-05-02T12:36:26;16.55;;;15.05;;
72273;SDS011;60208;48.692;8.948;2023-05-02T12:39:10;16.73;;;15.13;;
72273;SDS011;60208;48.692;8.948;2023-05-02T12:41:43;14.35;;;13.13;;
72273;SDS011;60208;48.692;8.948;2023-05-02T12:44:16;16.88;;;12.35;;
72273;SDS011;60208;48.692;8.948;2023-05-02T12:47:15;17.25;;;14.00;;
72273;SDS011;60208;48.692;8.948;2023-05-02T12:49:47;12.18;;;11.02;;
72273;SDS011;60208;48.692;8.948;2023-05-02T12:52:19;17.92;;;14.38;;
72273;SDS011;60208;48.692;8.948;2023-05-02T12:54:46;12.82;;;11.55;;
72273;SDS011;60208;48.692;8.948;2023-05-02T12:57:22;17.40;;;13.52;;
72273;SDS011;60208;48.692;8.948;2023-05-02T12:59:54;15.47;;;13.87;;
72273;SDS011;60208;48.692;8.948;2023-05-02T13:02:23;15.52;;;14.23;;
72273;SDS011;60208;48.692;8.948;2023-05-02T13:04:54;17.67;;;13.30;;
72273;SDS011;60208;48.692;8.948;2023-05-02T13:07:19;16.30;;;14.25;;
72273;SDS011;60208;48.692;8.948;2023-05-02T13:09:45;17.63;;;14.20;;
72273;SDS011;60208;48.692;8.948;2023-05-02T13:12:13;14.23;;;12.82;;
72273;SDS011;60208;48.692;8.948;2023-05-02T13:14:39;15.65;;;14.05;;
72273;SDS011;60208;48.692;8.948;2023-05-02T13:17:04;14.40;;;13.00;;
72273;SDS011;60208;48.692;8.948;2023-05-02T13:19:32;13.90;;;11.98;;
72273;SDS011;60208;48.692;8.948;2023-05-02T13:21:58;15.13;;;12.00;;
72273;SDS011;60208;48.692;8.948;2023-05-02T13:24:24;17.83;;;14.63;;
72273;SDS011;60208;48.692;8.948;2023-05-02T13:26:50;17.55;;;15.63;;
72273;SDS011;60208;48.692;8.948;2023-05-02T13:29:15;18.25;;;15.43;;
72273;SDS011;60208;48.692;8.948;2023-05-02T13:31:41;14.85;;;13.35;;
72273;SDS011;60208;48.692;8.948;2023-05-02T13:34:06;19.27;;;17.27;;
72273;SDS011;60208;48.692;8.948;2023-05-02T13:36:32;18.10;;;16.30;;
72273;SDS011;60208;48.692;8.948;2023-05-02T13:38:58;17.42;;;15.82;;
72273;SDS011;60208;48.692;8.948;2023-05-02T13:41:27;16.05;;;14.50;;
72273;SDS011;60208;48.692;8.948;2023-05-02T13:43:52;17.23;;;15.57;;
72273;SDS011;60208;48.692;8.948;2023-05-02T13:46:27;17.38;;;15.35;;
72273;SDS011;60208;48.692;8.948;2023-05-02T13:48:52;14.88;;;13.38;;
72273;SDS011;60208;48.692;8.948;2023-05-02T13:51:18;13.30;;;12.00;;
72273;SDS011;60208;48.692;8.948;2023-05-02T13:53:43;17.10;;;14.88;;
72273;SDS011;60208;48.692;8.948;2023-05-02T13:56:09;16.95;;;15.20;;
72273;SDS011;60208;48.692;8.948;2023-05-02T13:58:40;16.00;;;13.60;;
72273;SDS011;60208;48.692;8.948;2023-05-02T14:01:21;17.55;;;15.75;;
72273;SDS011;60208;48.692;8.948;2023-05-02T14:03:54;13.73;;;12.27;;
72273;SDS011;60208;48.692;8.948;2023-05-02T14:06:19;16.58;;;14.85;;
72273;SDS011;60208;48.692;8.948;2023-05-02T14:08:44;15.77;;;12.50;;
72273;SDS011;60208;48.692;8.948;2023-05-02T14:11:10;11.93;;;10.70;;
72273;SDS011;60208;48.692;8.948;2023-05-02T14:13:35;13.27;;;11.98;;
72273;SDS011;60208;48.692;8.948;2023-05-02T14:16:01;11.65;;;10.40;;
72273;SDS011;60208;48.692;8.948;2023-05-02T14:18:27;14.05;;;10.73;;
72273;SDS011;60208;48.692;8.948;2023-05-02T14:20:52;19.75;;;9.85;;
72273;SDS011;60208;48.692;8.948;2023-05-02T14:23:17;13.27;;;10.43;;
72273;SDS011;60208;48.692;8.948;2023-05-02T14:25:46;12.57;;;10.13;;
72273;SDS011;60208;48.692;8.948;2023-05-02T14:28:11;12.93;;;11.63;;
72273;SDS011;60208;48.692;8.948;2023-05-02T14:30:36;10.45;;;9.27;;
72273;SDS011;60208;48.692;8.948;2023-05-02T14:33:02;10.93;;;9.82;;
72273;SDS011;60208;48.692;8.948;2023-05-02T14:35:31;10.93;;;9.23;;
72273;SDS011;60208;48.692;8.948;2023-05-02T14:38:03;10.52;;;9.52;;
72273;SDS011;60208;48.692;8.948;2023-05-02T14:40:28;10.25;;;8.52;;
72273;SDS011;60208;48.692;8.948;2023-05-02T14:42:57;10.00;;;7.75;;
72273;SDS011;60208;48.692;8.948;2023-05-02T14:45:22;9.90;;;8.60;;
72273;SDS011;60208;48.692;8.948;2023-05-02T14:47:48;12.15;;;8.88;;
72273;SDS011;60208;48.692;8.948;2023-05-02T14:50:29;14.70;;;9.65;;
72273;SDS011;60208;48.692;8.948;2023-05-02T14:52:55;13.98;;;9.10;;
72273;SDS011;60208;48.692;8.948;2023-05-02T14:55:24;10.13;;;8.40;;
72273;SDS011;60208;48.692;8.948;2023-05-02T14:58:05;9.00;;;7.68;;
72273;SDS011;60208;48.692;8.948;2023-05-02T15:00:37;15.80;;;8.85;;
72273;SDS011;60208;48.692;8.948;2023-05-02T15:03:06;10.15;;;8.38;;
72273;SDS011;60208;48.692;8.948;2023-05-02T15:05:34;12.90;;;9.15;;
72273;SDS011;60208;48.692;8.948;2023-05-02T15:08:03;11.27;;;9.82;;
72273;SDS011;60208;48.692;8.948;2023-05-02T15:10:29;14.25;;;8.43;;
72273;SDS011;60208;48.692;8.948;2023-05-02T15:12:55;10.52;;;8.35;;
72273;SDS011;60208;48.692;8.948;2023-05-02T15:15:20;9.75;;;8.63;;
72273;SDS011;60208;48.692;8.948;2023-05-02T15:17:52;11.38;;;8.73;;
72273;SDS011;60208;48.692;8.948;2023-05-02T15:20:17;11.48;;;9.23;;
72273;SDS011;60208;48.692;8.948;2023-05-02T15:22:44;11.50;;;8.40;;
72273;SDS011;60208;48.692;8.948;2023-05-02T15:25:09;11.68;;;8.38;;
72273;SDS011;60208;48.692;8.948;2023-05-02T15:27:35;9.48;;;8.07;;
72273;SDS011;60208;48.692;8.948;2023-05-02T15:30:03;10.40;;;7.68;;